Time;durP1;ratioP1;P1;durP2;ratioP2;P2;SDS_P1;SDS_P2;PMS_P1;PMS_P2;Temp;Humidity;BMP_temperature;BMP_pressure;BME280_temperature;BME280_humidity;BME280_pressure;Samples;Min_cycle;Max_cycle;Signal;HPM_P1;HPM_P2
2021/04/29 00:01:14;;;;;;;8.47;3.53;;;14.80;51.80;;;;;;4984011;28;20030;-78
2021/04/29 00:03:40;;;;;;;5.37;3.67;;;14.80;52.00;;;;;;5009564;28;20487;-79
2021/04/29 00:06:06;;;;;;;5.87;3.67;;;14.70;52.20;;;;;;4989149;28;20366;-79
2021/04/29 00:08:32;;;;;;;6.53;3.50;;;14.70;52.30;;;;;;5006434;28;20030;-79
2021/04/29 00:10:59;;;;;;;6.57;3.20;;;14.70;52.50;;;;;;5010622;28;20025;-78
2021/04/29 00:13:25;;;;;;;7.67;3.70;;;14.60;52.50;;;;;;5011799;28;20034;-79
2021/04/29 00:15:51;;;;;;;3.73;2.73;;;14.50;52.50;;;;;;5010645;28;20025;-79
2021/04/29 00:18:17;;;;;;;4.17;3.10;;;14.50;52.50;;;;;;5012108;28;20449;-79
2021/04/29 00:20:44;;;;;;;4.23;2.80;;;14.50;52.40;;;;;;5011739;28;20068;-79
2021/04/29 00:23:10;;;;;;;4.67;3.20;;;14.50;52.40;;;;;;5009374;28;20082;-79
2021/04/29 00:25:36;;;;;;;4.73;2.87;;;14.50;52.40;;;;;;5009146;28;20479;-79
2021/04/29 00:28:02;;;;;;;3.80;2.83;;;14.40;52.90;;;;;;5010552;28;20029;-79
2021/04/29 00:30:28;;;;;;;6.43;3.10;;;14.50;52.80;;;;;;4989643;28;20120;-79
2021/04/29 00:32:54;;;;;;;5.67;3.60;;;14.40;53.00;;;;;;4990809;28;20038;-79
2021/04/29 00:35:19;;;;;;;3.93;3.00;;;14.30;53.10;;;;;;4987676;28;20528;-79
2021/04/29 00:37:47;;;;;;;6.00;2.97;;;14.30;53.20;;;;;;4986172;28;20112;-78
2021/04/29 00:40:14;;;;;;;4.33;2.63;;;14.30;53.30;;;;;;4991058;28;20462;-79
2021/04/29 00:42:40;;;;;;;7.13;3.07;;;14.30;53.30;;;;;;4989869;28;20244;-80
2021/04/29 00:45:11;;;;;;;5.20;3.03;;;14.40;53.20;;;;;;4991195;28;20096;-79
2021/04/29 00:47:38;;;;;;;5.00;3.20;;;14.30;53.40;;;;;;4985024;28;20041;-78
2021/04/29 00:50:08;;;;;;;5.33;3.03;;;14.30;53.60;;;;;;4989819;28;20498;-79
2021/04/29 00:52:34;;;;;;;8.00;2.90;;;14.30;53.80;;;;;;4988899;28;20497;-78
2021/04/29 00:55:00;;;;;;;5.70;2.80;;;14.30;54.00;;;;;;4978797;28;20031;-79
2021/04/29 00:57:26;;;;;;;5.40;3.30;;;14.30;54.00;;;;;;4993795;28;20379;-79
2021/04/29 00:59:55;;;;;;;7.07;3.10;;;14.30;53.80;;;;;;4991340;28;20026;-79
2021/04/29 01:02:23;;;;;;;5.57;3.40;;;14.30;53.80;;;;;;4980584;28;20121;-79
2021/04/29 01:05:06;;;;;;;5.17;3.47;;;14.30;53.70;;;;;;4993477;28;20041;-79
2021/04/29 01:07:49;;;;;;;6.15;3.28;;;14.20;54.00;;;;;;4980051;28;20035;-79
2021/04/29 01:11:07;;;;;;;3.60;2.50;;;14.10;54.30;;;;;;4995384;28;20518;-78
2021/04/29 01:13:37;;;;;;;3.47;2.50;;;14.00;54.30;;;;;;4960605;28;20054;-79
2021/04/29 01:16:04;;;;;;;5.13;3.13;;;14.00;54.60;;;;;;4994519;28;20037;-79
2021/04/29 01:18:30;;;;;;;4.03;2.40;;;14.10;54.00;;;;;;4994741;28;20038;-79
2021/04/29 01:21:05;;;;;;;7.60;2.60;;;14.20;53.90;;;;;;4994439;28;20096;-79
2021/04/29 01:23:49;;;;;;;4.07;2.50;;;14.20;53.80;;;;;;4992649;28;20050;-79
2021/04/29 01:26:33;;;;;;;4.83;2.97;;;14.20;53.70;;;;;;4995000;28;20038;-79
2021/04/29 01:29:32;;;;;;;4.20;2.63;;;14.10;53.80;;;;;;4993615;28;20358;-79
2021/04/29 01:32:00;;;;;;;7.77;3.10;;;14.00;54.10;;;;;;4949450;28;20176;-79
2021/04/29 01:34:31;;;;;;;4.43;2.90;;;13.90;54.00;;;;;;4995594;28;20030;-79
2021/04/29 01:36:57;;;;;;;5.70;3.23;;;13.80;54.10;;;;;;5013408;28;20104;-79
2021/04/29 01:39:23;;;;;;;4.77;3.23;;;13.80;54.30;;;;;;4995959;28;20030;-79
2021/04/29 01:41:52;;;;;;;4.93;3.30;;;13.80;54.90;;;;;;5009649;28;20161;-79
2021/04/29 01:44:25;;;;;;;6.60;3.07;;;13.80;54.60;;;;;;4987662;28;20080;-79
2021/04/29 01:46:51;;;;;;;;;;;13.80;54.70;;;;;;4997714;28;20053;-78
2021/04/29 01:49:18;;;;;;;7.67;3.67;;;13.70;54.50;;;;;;4995991;28;19932;-78
2021/04/29 01:51:45;;;;;;;4.77;2.93;;;13.70;54.50;;;;;;5012688;28;20014;-79
2021/04/29 01:54:12;;;;;;;5.03;2.63;;;13.70;54.70;;;;;;4999276;28;20600;-79
2021/04/29 01:56:39;;;;;;;4.37;3.00;;;13.70;54.70;;;;;;4999597;28;20026;-79
2021/04/29 01:59:06;;;;;;;4.30;2.90;;;13.70;54.70;;;;;;5007490;28;20176;-79
2021/04/29 02:01:32;;;;;;;3.77;2.77;;;13.70;54.50;;;;;;4995737;28;20026;-79
2021/04/29 02:03:58;;;;;;;4.23;2.73;;;13.70;54.40;;;;;;4995428;28;20033;-79
2021/04/29 02:06:24;;;;;;;6.50;2.73;;;13.70;54.60;;;;;;4995424;28;20117;-79
2021/04/29 02:08:50;;;;;;;4.13;2.73;;;13.60;54.60;;;;;;5014127;28;20473;-78
2021/04/29 02:11:16;;;;;;;3.57;2.43;;;13.60;54.70;;;;;;5015123;28;20026;-79
2021/04/29 02:13:45;;;;;;;5.37;3.10;;;13.60;54.80;;;;;;4977941;28;20034;-79
2021/04/29 02:16:29;;;;;;;6.93;3.13;;;13.60;55.10;;;;;;5012684;28;20024;-79
2021/04/29 02:18:55;;;;;;;4.47;3.90;;;13.60;55.30;;;;;;5007542;28;20061;-78
2021/04/29 02:21:22;;;;;;;7.40;4.30;;;13.60;55.40;;;;;;5011010;28;20038;-79
2021/04/29 02:23:49;;;;;;;9.33;4.47;;;13.60;55.70;;;;;;4991956;28;20486;-79
2021/04/29 02:26:17;;;;;;;8.07;4.50;;;13.60;55.80;;;;;;4995586;28;20033;-79
2021/04/29 02:28:44;;;;;;;7.97;5.03;;;13.70;55.80;;;;;;5012769;28;20470;-79
2021/04/29 02:31:10;;;;;;;11.83;6.10;;;13.70;55.90;;;;;;4996064;28;20057;-79
2021/04/29 02:33:37;;;;;;;9.43;5.87;;;13.70;55.90;;;;;;4993107;28;20046;-79
2021/04/29 02:36:07;;;;;;;9.17;6.00;;;13.70;56.10;;;;;;5013555;28;20036;-78
2021/04/29 02:38:35;;;;;;;10.30;6.73;;;13.70;56.50;;;;;;4995767;28;20036;-79
2021/04/29 02:41:02;;;;;;;9.00;6.80;;;13.60;56.70;;;;;;5012890;28;20014;-79
2021/04/29 02:43:28;;;;;;;10.00;6.27;;;13.60;56.80;;;;;;4987380;28;20027;-78
2021/04/29 02:45:54;;;;;;;8.13;6.40;;;13.60;56.90;;;;;;5012409;28;20405;-79
2021/04/29 02:48:20;;;;;;;8.53;6.20;;;13.60;57.00;;;;;;4996136;28;20033;-79
2021/04/29 02:50:46;;;;;;;9.07;5.90;;;13.50;57.10;;;;;;4995611;28;20041;-79
2021/04/29 02:53:17;;;;;;;9.63;6.03;;;13.50;57.20;;;;;;4995676;28;20509;-79
2021/04/29 02:55:44;;;;;;;8.83;5.80;;;13.50;57.40;;;;;;4992633;28;20394;-79
2021/04/29 02:58:13;;;;;;;10.33;6.27;;;13.50;57.40;;;;;;4995584;28;20355;-79
2021/04/29 03:00:40;;;;;;;9.53;6.17;;;13.50;57.50;;;;;;5008556;28;20014;-79
2021/04/29 03:03:09;;;;;;;12.93;6.63;;;13.40;57.70;;;;;;4991753;28;20026;-79
2021/04/29 03:05:36;;;;;;;10.07;6.40;;;13.40;57.70;;;;;;5018686;28;20041;-78
2021/04/29 03:08:03;;;;;;;12.03;5.83;;;13.40;57.60;;;;;;4993197;28;20026;-79
2021/04/29 03:10:28;;;;;;;7.67;5.90;;;13.40;57.70;;;;;;5011617;28;20037;-79
2021/04/29 03:12:58;;;;;;;7.03;4.27;;;13.30;57.70;;;;;;5010636;28;20027;-79
2021/04/29 03:15:24;;;;;;;6.00;4.43;;;13.30;57.80;;;;;;4994205;28;20148;-79
2021/04/29 03:17:50;;;;;;;7.27;4.17;;;13.30;57.70;;;;;;5012446;28;20053;-79
2021/04/29 03:20:16;;;;;;;5.63;3.90;;;13.30;57.60;;;;;;4988540;28;20678;-79
2021/04/29 03:22:41;;;;;;;6.13;4.03;;;13.20;57.70;;;;;;4995735;28;20053;-79
2021/04/29 03:25:08;;;;;;;5.77;4.30;;;13.10;57.80;;;;;;4994369;28;20108;-78
2021/04/29 03:27:33;;;;;;;5.17;3.53;;;13.10;57.90;;;;;;4993781;28;20038;-79
2021/04/29 03:29:59;;;;;;;6.87;3.60;;;13.10;57.90;;;;;;4992445;28;20433;-79
2021/04/29 03:32:25;;;;;;;6.60;4.23;;;13.20;58.00;;;;;;4996752;28;20125;-79
2021/04/29 03:34:51;;;;;;;5.33;4.03;;;13.20;57.80;;;;;;4986783;28;20116;-78
2021/04/29 03:37:17;;;;;;;8.87;5.10;;;13.20;57.60;;;;;;4983971;28;20044;-79
2021/04/29 03:39:44;;;;;;;8.60;5.47;;;13.30;57.50;;;;;;5012402;28;20017;-79
2021/04/29 03:42:10;;;;;;;13.77;6.70;;;13.30;57.50;;;;;;5008863;28;20022;-79
2021/04/29 03:44:38;;;;;;;8.63;5.80;;;13.20;57.50;;;;;;5000105;28;20049;-79
2021/04/29 03:47:04;;;;;;;8.40;5.47;;;13.10;57.60;;;;;;5001921;28;20121;-78
2021/04/29 03:49:31;;;;;;;6.67;5.40;;;13.00;57.70;;;;;;4999170;28;20412;-79
2021/04/29 03:51:56;;;;;;;6.80;5.53;;;12.90;57.90;;;;;;5012521;28;20478;-79
2021/04/29 03:54:23;;;;;;;7.80;5.53;;;12.90;57.90;;;;;;4993786;28;20140;-79
2021/04/29 03:56:49;;;;;;;9.60;6.73;;;12.90;57.80;;;;;;4994907;28;20030;-79
2021/04/29 03:59:15;;;;;;;10.53;6.03;;;12.90;57.60;;;;;;5006559;28;20033;-79
2021/04/29 04:01:41;;;;;;;7.03;5.63;;;13.00;57.30;;;;;;4999788;28;20076;-79
2021/04/29 04:04:06;;;;;;;6.20;4.47;;;13.00;57.20;;;;;;5009375;28;20030;-79
2021/04/29 04:06:32;;;;;;;5.90;4.03;;;13.00;57.30;;;;;;5011762;28;20029;-79
2021/04/29 04:08:58;;;;;;;5.63;3.73;;;12.90;57.30;;;;;;5009594;28;20034;-78
2021/04/29 04:11:24;;;;;;;8.60;3.93;;;12.90;57.60;;;;;;5009359;28;20029;-79
2021/04/29 04:13:49;;;;;;;13.50;4.20;;;12.80;57.70;;;;;;4992639;28;20022;-78
2021/04/29 04:16:16;;;;;;;12.63;4.80;;;12.70;57.80;;;;;;5011374;28;20394;-78
2021/04/29 04:18:42;;;;;;;8.27;5.53;;;12.70;57.90;;;;;;4994893;28;20026;-78
2021/04/29 04:21:08;;;;;;;12.17;6.03;;;12.80;58.10;;;;;;4993640;28;20441;-78
2021/04/29 04:23:34;;;;;;;6.57;4.60;;;12.80;58.00;;;;;;4992633;28;20018;-78
2021/04/29 04:26:00;;;;;;;12.00;4.20;;;12.80;57.90;;;;;;4994325;28;20030;-78
2021/04/29 04:28:27;;;;;;;6.03;4.20;;;12.70;57.80;;;;;;4995593;28;20025;-78
2021/04/29 04:30:53;;;;;;;9.37;4.73;;;12.60;58.00;;;;;;4996819;28;20046;-78
2021/04/29 04:33:19;;;;;;;6.90;4.67;;;12.50;58.10;;;;;;5008886;28;20044;-78
2021/04/29 04:35:45;;;;;;;6.17;5.00;;;12.60;58.20;;;;;;5016156;28;20033;-78
2021/04/29 04:38:11;;;;;;;6.63;5.07;;;12.60;58.20;;;;;;5007882;28;20431;-78
2021/04/29 04:40:36;;;;;;;9.10;4.73;;;12.60;58.20;;;;;;5004827;28;20110;-78
2021/04/29 04:43:02;;;;;;;7.13;4.40;;;12.70;58.20;;;;;;5014412;28;20054;-79
2021/04/29 04:45:28;;;;;;;6.13;3.77;;;12.60;58.10;;;;;;5013959;28;20040;-78
2021/04/29 04:47:54;;;;;;;9.10;5.30;;;12.50;58.20;;;;;;5015833;28;22021;-78
2021/04/29 04:50:20;;;;;;;7.33;5.63;;;12.50;58.40;;;;;;5015612;28;20026;-78
2021/04/29 04:52:46;;;;;;;9.87;4.93;;;12.50;58.80;;;;;;4982293;28;20038;-78
2021/04/29 04:55:12;;;;;;;9.27;5.40;;;12.50;58.70;;;;;;5014935;28;20026;-78
2021/04/29 04:57:38;;;;;;;7.70;4.50;;;12.50;58.60;;;;;;5015302;28;20093;-78
2021/04/29 05:00:05;;;;;;;6.60;3.93;;;12.50;58.50;;;;;;4996452;28;20173;-78
2021/04/29 05:02:31;;;;;;;10.30;4.60;;;12.50;58.50;;;;;;4997771;28;20077;-79
2021/04/29 05:04:58;;;;;;;8.23;4.33;;;12.50;58.70;;;;;;4997398;28;20052;-78
2021/04/29 05:07:24;;;;;;;8.57;4.97;;;12.50;58.90;;;;;;4996470;28;20025;-78
2021/04/29 05:09:50;;;;;;;6.77;5.50;;;12.60;59.00;;;;;;4995788;28;20419;-77
2021/04/29 05:12:16;;;;;;;13.07;7.13;;;12.60;58.80;;;;;;5014618;28;20096;-78
2021/04/29 05:14:41;;;;;;;14.17;7.87;;;12.70;58.70;;;;;;5013155;28;20026;-78
2021/04/29 05:17:07;;;;;;;18.03;7.67;;;12.70;58.60;;;;;;4995155;28;20032;-78
2021/04/29 05:19:33;;;;;;;7.90;4.80;;;12.70;58.50;;;;;;4997870;28;20048;-78
2021/04/29 05:21:59;;;;;;;7.23;4.47;;;12.80;58.40;;;;;;5015698;28;20014;-78
2021/04/29 05:24:25;;;;;;;8.20;4.37;;;12.70;58.40;;;;;;5014868;28;20026;-78
2021/04/29 05:26:51;;;;;;;11.70;5.80;;;12.80;58.50;;;;;;5011925;28;20080;-78
2021/04/29 05:29:17;;;;;;;7.77;4.93;;;12.80;58.50;;;;;;4992376;28;20038;-78
2021/04/29 05:31:44;;;;;;;8.60;6.63;;;12.80;58.70;;;;;;4995429;28;20088;-78
2021/04/29 05:34:10;;;;;;;15.03;6.67;;;12.80;58.80;;;;;;4995003;28;20045;-78
2021/04/29 05:36:35;;;;;;;10.20;6.50;;;12.80;58.90;;;;;;4981271;28;20035;-78
2021/04/29 05:39:02;;;;;;;13.63;7.53;;;12.80;59.00;;;;;;4982403;28;20482;-78
2021/04/29 05:41:29;;;;;;;13.50;7.40;;;12.90;59.00;;;;;;4993740;28;20061;-78
2021/04/29 05:43:55;;;;;;;12.00;7.50;;;12.90;58.90;;;;;;4991037;28;20178;-79
2021/04/29 05:46:21;;;;;;;11.20;7.07;;;13.00;58.90;;;;;;4991757;28;20026;-78
2021/04/29 05:48:46;;;;;;;12.27;7.83;;;13.00;58.90;;;;;;4993253;28;20390;-78
2021/04/29 05:51:12;;;;;;;11.50;7.00;;;13.00;58.90;;;;;;4994412;28;20022;-79
2021/04/29 05:53:38;;;;;;;15.53;6.60;;;13.10;58.90;;;;;;4995125;28;20053;-78
2021/04/29 05:56:05;;;;;;;11.93;7.50;;;13.10;58.80;;;;;;4994241;28;20033;-79
2021/04/29 05:58:32;;;;;;;10.17;6.57;;;13.10;59.00;;;;;;4994188;28;20117;-78
2021/04/29 06:00:57;;;;;;;13.63;6.47;;;13.10;59.00;;;;;;4967015;28;20026;-78
2021/04/29 06:03:23;;;;;;;8.73;6.70;;;13.10;59.10;;;;;;4983485;28;20018;-78
2021/04/29 06:05:50;;;;;;;11.27;6.97;;;13.10;59.10;;;;;;4992331;28;20038;-79
2021/04/29 06:08:16;;;;;;;12.87;7.17;;;13.20;58.80;;;;;;4993054;28;20058;-78
2021/04/29 06:10:42;;;;;;;19.30;8.10;;;13.30;58.70;;;;;;5008634;28;20042;-78
2021/04/29 06:13:09;;;;;;;17.07;7.77;;;13.30;58.90;;;;;;4990626;28;20031;-78
2021/04/29 06:15:34;;;;;;;18.60;8.63;;;13.40;58.30;;;;;;4990139;28;20518;-78
2021/04/29 06:18:00;;;;;;;19.10;7.57;;;13.40;58.10;;;;;;4992604;28;20023;-78
2021/04/29 06:20:26;;;;;;;14.83;7.93;;;13.50;58.10;;;;;;4992985;28;20023;-79
2021/04/29 06:22:53;;;;;;;14.20;7.33;;;13.60;57.90;;;;;;4993187;28;20029;-79
2021/04/29 06:25:20;;;;;;;17.10;7.93;;;13.60;57.80;;;;;;4991863;28;20096;-78
2021/04/29 06:27:46;;;;;;;14.80;7.43;;;13.70;57.70;;;;;;4993660;28;20097;-78
2021/04/29 06:30:12;;;;;;;10.13;7.23;;;13.70;57.40;;;;;;4986236;28;20201;-78
2021/04/29 06:32:38;;;;;;;16.80;7.57;;;13.70;57.10;;;;;;4988917;28;20542;-78
2021/04/29 06:35:04;;;;;;;9.33;6.20;;;13.80;57.10;;;;;;4992137;28;20105;-80
2021/04/29 06:37:30;;;;;;;11.47;6.80;;;13.80;57.00;;;;;;4994015;28;20030;-78
2021/04/29 06:39:56;;;;;;;11.33;6.50;;;13.90;56.90;;;;;;4994321;28;20098;-78
2021/04/29 06:42:22;;;;;;;11.87;6.70;;;13.90;56.80;;;;;;4994319;28;20046;-79
2021/04/29 06:44:47;;;;;;;17.80;6.70;;;13.90;56.70;;;;;;4992508;28;20157;-78
2021/04/29 06:47:17;;;;;;;16.00;6.07;;;13.90;57.20;;;;;;4991275;28;20030;-78
2021/04/29 06:49:43;;;;;;;15.93;6.67;;;14.00;56.70;;;;;;4991284;28;20134;-79
2021/04/29 06:52:08;;;;;;;7.33;5.23;;;14.00;56.60;;;;;;4982204;28;20126;-78
2021/04/29 06:54:34;;;;;;;7.97;4.80;;;14.10;56.50;;;;;;4989341;28;20047;-78
2021/04/29 06:57:00;;;;;;;11.13;4.93;;;14.20;56.30;;;;;;4986238;28;20546;-78
2021/04/29 06:59:26;;;;;;;6.90;4.30;;;14.30;56.00;;;;;;4992873;28;20073;-78
2021/04/29 07:01:51;;;;;;;9.37;4.93;;;14.50;55.70;;;;;;4992005;28;20022;-78
2021/04/29 07:04:17;;;;;;;6.13;4.53;;;14.70;55.40;;;;;;4993669;28;20042;-79
2021/04/29 07:06:43;;;;;;;8.67;5.37;;;14.80;55.30;;;;;;4991907;28;20105;-79
2021/04/29 07:09:09;;;;;;;8.73;5.03;;;14.90;55.00;;;;;;4991966;28;20018;-79
2021/04/29 07:11:35;;;;;;;9.97;5.50;;;15.00;55.00;;;;;;4991701;28;20034;-79
2021/04/29 07:14:00;;;;;;;7.17;4.27;;;15.30;55.00;;;;;;4993464;28;20022;-78
2021/04/29 07:16:26;;;;;;;5.83;4.33;;;15.40;54.60;;;;;;4992354;28;20509;-79
2021/04/29 07:18:52;;;;;;;7.73;4.60;;;15.60;54.50;;;;;;4984472;28;20027;-79
2021/04/29 07:21:18;;;;;;;13.03;4.83;;;15.70;54.30;;;;;;4991713;28;20045;-79
2021/04/29 07:23:48;;;;;;;10.23;4.77;;;15.90;54.10;;;;;;4992939;28;20105;-79
2021/04/29 07:26:17;;;;;;;9.70;3.97;;;16.00;53.60;;;;;;4981526;28;20018;-79
2021/04/29 07:28:44;;;;;;;11.33;5.60;;;16.20;53.60;;;;;;4988602;28;20026;-79
2021/04/29 07:31:10;;;;;;;6.83;3.93;;;16.30;53.30;;;;;;5011894;28;20029;-79
2021/04/29 07:33:36;;;;;;;12.20;4.53;;;16.40;53.10;;;;;;4993854;28;20490;-79
2021/04/29 07:36:03;;;;;;;6.22;3.70;;;16.60;52.80;;;;;;5004236;28;20041;-79
2021/04/29 07:38:28;;;;;;;11.57;5.00;;;16.80;52.60;;;;;;4980669;28;20026;-78
2021/04/29 07:40:54;;;;;;;9.68;4.22;;;16.90;52.20;;;;;;5010183;28;20025;-78
2021/04/29 07:43:20;;;;;;;7.07;4.18;;;17.00;52.10;;;;;;5011169;28;20022;-79
2021/04/29 07:45:46;;;;;;;15.02;5.32;;;17.20;51.80;;;;;;5011336;28;20531;-79
2021/04/29 07:48:12;;;;;;;9.38;4.72;;;17.30;51.70;;;;;;4992923;28;20057;-78
2021/04/29 07:50:37;;;;;;;7.85;5.65;;;17.50;51.60;;;;;;4989398;28;20030;-79
2021/04/29 07:53:03;;;;;;;12.30;4.53;;;17.60;51.50;;;;;;4991850;28;20037;-79
2021/04/29 07:55:29;;;;;;;10.65;4.72;;;17.60;51.40;;;;;;4994049;28;20544;-79
2021/04/29 07:57:55;;;;;;;10.10;4.63;;;17.70;51.40;;;;;;5000724;28;20046;-78
2021/04/29 08:00:21;;;;;;;11.02;4.28;;;17.90;51.00;;;;;;4978022;28;20466;-78
2021/04/29 08:02:47;;;;;;;5.70;3.25;;;17.90;50.80;;;;;;5007073;28;20375;-78
2021/04/29 08:05:15;;;;;;;9.10;3.25;;;18.10;50.80;;;;;;5009419;28;20087;-80
2021/04/29 08:07:40;;;;;;;6.90;2.60;;;18.20;51.40;;;;;;5010260;28;20029;-79
2021/04/29 08:10:08;;;;;;;9.30;3.40;;;18.50;50.90;;;;;;4994588;28;20037;-79
2021/04/29 08:12:34;;;;;;;5.45;3.22;;;18.70;50.50;;;;;;5005892;28;20405;-79
2021/04/29 08:15:00;;;;;;;10.80;2.88;;;19.00;50.30;;;;;;5011792;28;20025;-78
2021/04/29 08:17:29;;;;;;;5.55;2.83;;;19.10;50.00;;;;;;5010930;28;20481;-79
2021/04/29 08:19:56;;;;;;;6.35;2.97;;;19.30;49.80;;;;;;4991810;28;20113;-79
2021/04/29 08:22:23;;;;;;;5.10;2.88;;;19.50;49.60;;;;;;4990568;28;20034;-79
2021/04/29 08:24:48;;;;;;;8.95;3.13;;;19.70;49.20;;;;;;5011098;28;20362;-79
2021/04/29 08:27:14;;;;;;;7.55;3.42;;;19.70;48.80;;;;;;4991715;28;20039;-79
2021/04/29 08:29:40;;;;;;;6.90;3.45;;;19.60;48.60;;;;;;4969942;28;689940;-79
2021/04/29 08:32:06;;;;;;;8.38;2.45;;;19.30;48.70;;;;;;4991531;28;20053;-79
2021/04/29 08:34:32;;;;;;;10.65;2.80;;;19.30;48.90;;;;;;4994553;28;20120;-79
2021/04/29 08:36:57;;;;;;;5.88;2.70;;;19.30;49.00;;;;;;5009228;28;20058;-79
2021/04/29 08:39:23;;;;;;;4.38;2.90;;;19.30;49.00;;;;;;5011624;28;20515;-80
2021/04/29 08:41:49;;;;;;;7.95;2.78;;;19.30;49.20;;;;;;4992858;28;20041;-79
2021/04/29 08:44:22;;;;;;;8.35;3.08;;;19.50;49.10;;;;;;5007924;28;20053;-78
2021/04/29 08:46:47;;;;;;;4.78;3.00;;;19.50;48.70;;;;;;5009505;28;20041;-79
2021/04/29 08:49:15;;;;;;;4.25;2.50;;;19.50;48.90;;;;;;5010851;28;20034;-79
2021/04/29 08:51:41;;;;;;;5.43;2.60;;;19.50;48.90;;;;;;5010215;28;20036;-78
2021/04/29 08:54:10;;;;;;;6.03;2.28;;;19.40;48.80;;;;;;4975480;28;20117;-79
2021/04/29 08:56:37;;;;;;;7.68;2.70;;;19.30;48.50;;;;;;4988544;28;20031;-79
2021/04/29 08:59:03;;;;;;;5.38;2.63;;;19.30;48.70;;;;;;4985405;28;20449;-79
2021/04/29 09:01:41;;;;;;;8.20;2.70;;;19.30;48.70;;;;;;5011241;28;20096;-80
2021/04/29 09:04:18;;;;;;;11.98;3.58;;;19.30;48.50;;;;;;5011040;28;20359;-79
2021/04/29 09:06:50;;;;;;;4.68;2.75;;;19.30;48.30;;;;;;5010040;28;20032;-79
2021/04/29 09:09:18;;;;;;;4.80;2.35;;;19.40;48.50;;;;;;4995120;28;20026;-79
2021/04/29 09:11:52;;;;;;;8.63;2.75;;;19.50;48.20;;;;;;4994843;28;20041;-80
2021/04/29 09:14:39;;;;;;;5.45;2.63;;;19.60;48.40;;;;;;5011966;28;20072;-80
2021/04/29 09:17:05;;;;;;;3.67;2.05;;;19.90;48.10;;;;;;4996363;28;20038;-80
2021/04/29 09:19:35;;;;;;;3.45;2.13;;;20.10;47.80;;;;;;4997539;28;20433;-80
2021/04/29 09:22:02;;;;;;;6.25;2.15;;;20.40;47.60;;;;;;4998761;28;20030;-80
2021/04/29 09:24:34;;;;;;;5.45;1.70;;;20.50;47.10;;;;;;4998793;28;20026;-80
2021/04/29 09:27:13;;;;;;;;;;;20.60;46.70;;;;;;5015955;28;20041;-79
2021/04/29 09:29:54;;;;;;;3.83;1.70;;;20.60;46.70;;;;;;4997120;28;20297;-80
2021/04/29 09:32:30;;;;;;;5.13;1.75;;;20.70;46.30;;;;;;4997643;28;20120;-80
2021/04/29 09:34:57;;;;;;;7.00;1.85;;;20.70;46.20;;;;;;4983204;28;20437;-80
2021/04/29 09:37:37;;;;;;;3.05;1.70;;;20.70;46.10;;;;;;5010337;28;20026;-80
2021/04/29 09:40:21;;;;;;;3.95;1.35;;;20.60;46.00;;;;;;4998505;28;20125;-80
2021/04/29 09:42:49;;;;;;;1.95;1.20;;;20.60;46.20;;;;;;4998858;28;20022;-80
2021/04/29 09:45:19;;;;;;;2.00;1.30;;;20.70;46.40;;;;;;4985181;28;20036;-79
2021/04/29 09:48:04;;;;;;;3.70;1.42;;;20.90;46.10;;;;;;5010034;28;20532;-80
2021/04/29 09:50:38;;;;;;;3.55;1.05;;;21.00;45.90;;;;;;5014556;28;20030;-80
2021/04/29 09:53:16;;;;;;;2.97;1.20;;;21.00;45.90;;;;;;5014946;28;20034;-80
2021/04/29 09:55:45;;;;;;;3.47;1.33;;;21.00;45.60;;;;;;5009243;28;20080;-80
2021/04/29 09:58:14;;;;;;;5.38;1.58;;;21.10;45.40;;;;;;5000386;28;20033;-79
2021/04/29 10:00:40;;;;;;;4.20;1.10;;;21.00;45.30;;;;;;4988727;28;20383;-79
2021/04/29 10:03:07;;;;;;;4.45;1.67;;;21.00;45.30;;;;;;4990968;28;20025;-79
2021/04/29 10:05:38;;;;;;;8.20;2.55;;;20.90;45.00;;;;;;4996662;28;20030;-80
2021/04/29 10:08:05;;;;;;;4.55;1.92;;;20.80;45.00;;;;;;5000656;28;20069;-79
2021/04/29 10:10:37;;;;;;;6.65;1.98;;;20.90;44.90;;;;;;4977628;28;20080;-79
2021/04/29 10:13:04;;;;;;;3.00;1.83;;;21.10;44.60;;;;;;5012414;28;20037;-79
2021/04/29 10:15:39;;;;;;;8.10;4.07;;;21.10;44.30;;;;;;4996064;28;20030;-80
2021/04/29 10:18:07;;;;;;;10.38;5.55;;;21.30;44.20;;;;;;4991694;28;20514;-80
2021/04/29 10:20:39;;;;;;;5.93;2.47;;;21.30;43.70;;;;;;5011940;28;20513;-80
2021/04/29 10:23:09;;;;;;;6.22;2.63;;;21.40;43.50;;;;;;5007287;28;20599;-80
2021/04/29 10:25:36;;;;;;;3.17;1.77;;;21.30;43.20;;;;;;5012894;28;20029;-80
2021/04/29 10:28:04;;;;;;;7.07;2.67;;;21.20;43.10;;;;;;4996308;28;20030;-80
2021/04/29 10:30:38;;;;;;;6.38;2.00;;;21.10;43.10;;;;;;5013160;28;20038;-80
2021/04/29 10:33:19;;;;;;;6.97;1.98;;;21.00;42.80;;;;;;4985661;28;20386;-80
2021/04/29 10:35:50;;;;;;;6.85;1.70;;;20.90;42.70;;;;;;4989583;28;20762;-80
2021/04/29 10:38:29;;;;;;;3.03;1.50;;;20.80;42.90;;;;;;5004460;28;20022;-79
2021/04/29 10:40:57;;;;;;;3.15;1.65;;;20.70;42.50;;;;;;5000545;28;20104;-80
2021/04/29 10:43:35;;;;;;;3.45;1.15;;;20.60;43.00;;;;;;4995364;28;20030;-80
2021/04/29 10:46:04;;;;;;;11.40;1.02;;;20.60;43.00;;;;;;5012270;28;20030;-80
2021/04/29 10:48:32;;;;;;;2.88;0.90;;;20.50;42.90;;;;;;5015288;28;20026;-79
2021/04/29 10:51:07;;;;;;;1.60;0.90;;;20.40;43.10;;;;;;5009578;28;20021;-79
2021/04/29 10:53:34;;;;;;;4.85;1.42;;;20.50;43.20;;;;;;5005029;28;20052;-79
2021/04/29 10:56:10;;;;;;;2.10;1.30;;;20.50;43.00;;;;;;5009152;28;20032;-78
2021/04/29 10:58:36;;;;;;;2.17;1.10;;;20.70;42.90;;;;;;5017473;28;20111;-80
2021/04/29 11:01:07;;;;;;;2.40;1.25;;;20.80;42.70;;;;;;5015155;28;20153;-79
2021/04/29 11:03:38;;;;;;;6.13;1.15;;;20.80;42.50;;;;;;5011219;28;20091;-80
2021/04/29 11:06:06;;;;;;;6.70;1.63;;;20.90;42.40;;;;;;5019281;28;20022;-79
2021/04/29 11:08:41;;;;;;;4.85;1.30;;;21.00;42.20;;;;;;4994569;28;20532;-79
2021/04/29 11:11:21;;;;;;;6.60;1.25;;;21.10;42.10;;;;;;5008499;28;20033;-79
2021/04/29 11:14:12;;;;;;;4.57;1.45;;;21.20;41.90;;;;;;5004493;28;20044;-79
2021/04/29 11:16:53;;;;;;;4.70;1.27;;;21.10;41.60;;;;;;5021492;28;20078;-79
2021/04/29 11:19:38;;;;;;;7.03;1.30;;;21.10;41.60;;;;;;4993169;28;20030;-79
2021/04/29 11:22:12;;;;;;;6.80;1.30;;;21.10;41.60;;;;;;5010834;28;20021;-79
2021/04/29 11:24:43;;;;;;;7.18;1.20;;;21.10;41.60;;;;;;5016010;28;20092;-79
2021/04/29 11:27:34;;;;;;;8.23;1.80;;;21.10;41.60;;;;;;5017721;28;20056;-79
2021/04/29 11:30:09;;;;;;;2.92;1.30;;;21.10;41.70;;;;;;5013676;28;20414;-79
2021/04/29 11:32:37;;;;;;;4.47;1.27;;;21.20;41.60;;;;;;5001228;28;20116;-79
2021/04/29 11:35:24;;;;;;;3.15;1.30;;;21.20;41.60;;;;;;5000569;28;20026;-79
2021/04/29 11:37:50;;;;;;;4.25;1.23;;;21.30;41.50;;;;;;4996516;28;20026;-79
2021/04/29 11:40:16;;;;;;;16.25;1.63;;;21.40;41.20;;;;;;5002458;28;20512;-79
2021/04/29 11:42:50;;;;;;;3.58;0.98;;;21.40;41.10;;;;;;5001106;28;20030;-79
2021/04/29 11:45:17;;;;;;;3.03;1.20;;;21.40;41.20;;;;;;5021798;28;20032;-79
2021/04/29 11:48:13;;;;;;;4.40;1.40;;;21.40;40.90;;;;;;4995624;28;20026;-80
2021/04/29 11:50:55;;;;;;;3.10;1.48;;;21.30;40.80;;;;;;4998776;28;20041;-79
2021/04/29 11:53:28;;;;;;;3.53;1.17;;;21.20;41.10;;;;;;4998995;28;20485;-79
2021/04/29 11:55:59;;;;;;;6.45;1.40;;;21.20;41.00;;;;;;4991136;28;20084;-78
2021/04/29 11:58:26;;;;;;;4.32;1.38;;;21.20;41.10;;;;;;5010448;28;20100;-78
2021/04/29 12:00:53;;;;;;;3.75;1.30;;;21.20;41.10;;;;;;5011424;28;20025;-79
2021/04/29 12:03:21;;;;;;;7.15;1.77;;;21.10;41.10;;;;;;5018121;28;20021;-79
2021/04/29 12:05:49;;;;;;;3.22;1.45;;;21.10;41.00;;;;;;5016825;28;20022;-79
2021/04/29 12:08:23;;;;;;;3.45;1.55;;;20.90;40.80;;;;;;4997161;28;20539;-79
2021/04/29 12:10:56;;;;;;;3.15;1.58;;;20.90;41.00;;;;;;5012250;28;20053;-79
2021/04/29 12:13:32;;;;;;;6.90;1.48;;;20.90;41.00;;;;;;5014042;28;20558;-79
2021/04/29 12:16:00;;;;;;;3.85;1.20;;;21.00;41.10;;;;;;5003423;28;20018;-79
2021/04/29 12:18:26;;;;;;;3.47;1.58;;;20.90;41.10;;;;;;4992717;28;20062;-78
2021/04/29 12:20:55;;;;;;;6.47;1.30;;;20.90;41.10;;;;;;5006406;28;20018;-79
2021/04/29 12:23:21;;;;;;;3.58;1.20;;;21.00;41.10;;;;;;5023382;28;20018;-78
2021/04/29 12:26:05;;;;;;;3.72;1.55;;;21.00;41.10;;;;;;4996141;28;20045;-79
2021/04/29 12:28:33;;;;;;;3.45;1.55;;;21.00;40.90;;;;;;5002845;28;20108;-78
2021/04/29 12:31:14;;;;;;;3.40;1.20;;;21.10;40.90;;;;;;5005459;28;20092;-79
2021/04/29 12:34:00;;;;;;;4.43;1.73;;;21.20;40.80;;;;;;5012427;28;20025;-79
2021/04/29 12:36:27;;;;;;;6.15;1.40;;;21.20;40.30;;;;;;5013930;28;20036;-79
2021/04/29 12:38:53;;;;;;;3.72;1.20;;;21.20;40.40;;;;;;5016262;28;20040;-78
2021/04/29 12:41:19;;;;;;;3.25;1.58;;;21.20;40.40;;;;;;4995122;28;20022;-79
2021/04/29 12:43:57;;;;;;;8.52;2.03;;;21.30;40.40;;;;;;5011690;28;20092;-79
2021/04/29 12:46:49;;;;;;;2.33;1.15;;;21.30;40.30;;;;;;4997329;28;20029;-79
2021/04/29 12:49:16;;;;;;;6.43;1.77;;;21.40;40.30;;;;;;4989793;28;20536;-78
2021/04/29 12:51:43;;;;;;;2.53;1.40;;;21.30;40.20;;;;;;5030788;28;20109;-79
2021/04/29 12:54:13;;;;;;;2.50;1.48;;;21.20;40.30;;;;;;4996488;28;20081;-78